sensor_id;sensor_type;location;lat;lon;timestamp;temperature;humidity
59282;DHT22;45054;52.062;10.010;2023-05-19T00:00:02;8.90;99.90
59282;DHT22;45054;52.062;10.010;2023-05-19T00:02:28;8.90;99.90
59282;DHT22;45054;52.062;10.010;2023-05-19T00:04:55;8.80;99.90
59282;DHT22;45054;52.062;10.010;2023-05-19T00:07:20;8.70;99.90
59282;DHT22;45054;52.062;10.010;2023-05-19T00:09:48;8.70;99.90
59282;DHT22;45054;52.062;10.010;2023-05-19T00:12:14;8.60;99.90
59282;DHT22;45054;52.062;10.010;2023-05-19T00:14:40;8.60;99.90
59282;DHT22;45054;52.062;10.010;2023-05-19T00:17:06;8.60;99.90
59282;DHT22;45054;52.062;10.010;2023-05-19T00:19:31;8.60;99.90
59282;DHT22;45054;52.062;10.010;2023-05-19T00:21:58;8.60;99.90
59282;DHT22;45054;52.062;10.010;2023-05-19T00:24:23;8.60;99.90
59282;DHT22;45054;52.062;10.010;2023-05-19T00:26:49;8.70;99.90
59282;DHT22;45054;52.062;10.010;2023-05-19T00:29:14;8.60;99.90
59282;DHT22;45054;52.062;10.010;2023-05-19T00:31:40;8.50;99.90
59282;DHT22;45054;52.062;10.010;2023-05-19T00:34:05;8.50;99.90
59282;DHT22;45054;52.062;10.010;2023-05-19T00:36:30;8.60;99.90
59282;DHT22;45054;52.062;10.010;2023-05-19T00:38:57;8.60;99.90
59282;DHT22;45054;52.062;10.010;2023-05-19T00:41:23;8.60;99.90
59282;DHT22;45054;52.062;10.010;2023-05-19T00:43:49;8.60;99.90
59282;DHT22;45054;52.062;10.010;2023-05-19T00:46:14;8.60;99.90
59282;DHT22;45054;52.062;10.010;2023-05-19T00:48:40;8.60;99.90
59282;DHT22;45054;52.062;10.010;2023-05-19T00:51:05;8.50;99.90
59282;DHT22;45054;52.062;10.010;2023-05-19T00:53:31;8.40;99.90
59282;DHT22;45054;52.062;10.010;2023-05-19T00:55:59;8.40;99.90
59282;DHT22;45054;52.062;10.010;2023-05-19T00:58:24;8.40;99.90
59282;DHT22;45054;52.062;10.010;2023-05-19T01:00:51;8.30;99.90
59282;DHT22;45054;52.062;10.010;2023-05-19T01:03:17;8.40;99.90
59282;DHT22;45054;52.062;10.010;2023-05-19T01:05:42;8.40;99.90
59282;DHT22;45054;52.062;10.010;2023-05-19T01:08:07;8.40;99.90
59282;DHT22;45054;52.062;10.010;2023-05-19T01:10:33;8.50;99.90
59282;DHT22;45054;52.062;10.010;2023-05-19T01:13:00;8.50;99.90
59282;DHT22;45054;52.062;10.010;2023-05-19T01:15:26;8.50;99.90
59282;DHT22;45054;52.062;10.010;2023-05-19T01:17:52;8.40;99.90
59282;DHT22;45054;52.062;10.010;2023-05-19T01:20:21;8.40;99.90
59282;DHT22;45054;52.062;10.010;2023-05-19T01:22:56;8.30;99.90
59282;DHT22;45054;52.062;10.010;2023-05-19T01:25:35;8.20;99.90
59282;DHT22;45054;52.062;10.010;2023-05-19T01:28:14;8.10;99.90
59282;DHT22;45054;52.062;10.010;2023-05-19T01:30:44;8.00;99.90
59282;DHT22;45054;52.062;10.010;2023-05-19T01:33:12;8.00;99.90
59282;DHT22;45054;52.062;10.010;2023-05-19T01:35:39;8.00;99.90
59282;DHT22;45054;52.062;10.010;2023-05-19T01:38:07;8.00;99.90
59282;DHT22;45054;52.062;10.010;2023-05-19T01:40:32;8.00;99.90
59282;DHT22;45054;52.062;10.010;2023-05-19T01:42:59;8.00;99.90
59282;DHT22;45054;52.062;10.010;2023-05-19T01:45:25;8.00;99.90
59282;DHT22;45054;52.062;10.010;2023-05-19T01:47:54;8.00;99.90
59282;DHT22;45054;52.062;10.010;2023-05-19T01:50:19;8.00;99.90
59282;DHT22;45054;52.062;10.010;2023-05-19T01:52:45;8.00;99.90
59282;DHT22;45054;52.062;10.010;2023-05-19T01:55:11;8.10;99.90
59282;DHT22;45054;52.062;10.010;2023-05-19T01:57:41;8.10;99.90
59282;DHT22;45054;52.062;10.010;2023-05-19T02:00:09;8.10;99.90
59282;DHT22;45054;52.062;10.010;2023-05-19T02:02:38;7.90;99.90
59282;DHT22;45054;52.062;10.010;2023-05-19T02:05:12;7.80;99.90
59282;DHT22;45054;52.062;10.010;2023-05-19T02:07:40;7.80;99.90
59282;DHT22;45054;52.062;10.010;2023-05-19T02:10:09;7.70;99.90
59282;DHT22;45054;52.062;10.010;2023-05-19T02:12:36;7.60;99.90
59282;DHT22;45054;52.062;10.010;2023-05-19T02:15:03;7.50;99.90
59282;DHT22;45054;52.062;10.010;2023-05-19T02:17:30;7.50;99.90
59282;DHT22;45054;52.062;10.010;2023-05-19T02:19:56;7.60;99.90
59282;DHT22;45054;52.062;10.010;2023-05-19T02:22:23;7.70;99.90
59282;DHT22;45054;52.062;10.010;2023-05-19T02:24:48;7.70;99.90
59282;DHT22;45054;52.062;10.010;2023-05-19T02:27:14;7.80;99.90
59282;DHT22;45054;52.062;10.010;2023-05-19T02:29:39;7.90;99.90
59282;DHT22;45054;52.062;10.010;2023-05-19T02:32:05;7.80;99.90
59282;DHT22;45054;52.062;10.010;2023-05-19T02:34:31;7.70;99.90
59282;DHT22;45054;52.062;10.010;2023-05-19T02:36:56;7.70;99.90
59282;DHT22;45054;52.062;10.010;2023-05-19T02:39:23;7.60;99.90
59282;DHT22;45054;52.062;10.010;2023-05-19T02:41:48;7.50;99.90
59282;DHT22;45054;52.062;10.010;2023-05-19T02:44:14;7.60;99.90
59282;DHT22;45054;52.062;10.010;2023-05-19T02:46:39;7.60;99.90
59282;DHT22;45054;52.062;10.010;2023-05-19T02:49:05;7.60;99.90
59282;DHT22;45054;52.062;10.010;2023-05-19T02:51:31;7.70;99.90
59282;DHT22;45054;52.062;10.010;2023-05-19T02:53:56;7.70;99.90
59282;DHT22;45054;52.062;10.010;2023-05-19T02:56:23;7.80;99.90
59282;DHT22;45054;52.062;10.010;2023-05-19T02:58:48;7.90;99.90
59282;DHT22;45054;52.062;10.010;2023-05-19T03:01:14;7.90;99.90
59282;DHT22;45054;52.062;10.010;2023-05-19T03:03:39;8.00;99.90
59282;DHT22;45054;52.062;10.010;2023-05-19T03:06:05;7.90;99.90
59282;DHT22;45054;52.062;10.010;2023-05-19T03:08:30;7.90;99.90
59282;DHT22;45054;52.062;10.010;2023-05-19T03:10:55;7.90;99.90
59282;DHT22;45054;52.062;10.010;2023-05-19T03:13:22;7.90;99.90
59282;DHT22;45054;52.062;10.010;2023-05-19T03:15:48;7.90;99.90
59282;DHT22;45054;52.062;10.010;2023-05-19T03:18:13;7.90;99.90
59282;DHT22;45054;52.062;10.010;2023-05-19T03:20:39;7.80;99.90
59282;DHT22;45054;52.062;10.010;2023-05-19T03:23:04;7.80;99.90
59282;DHT22;45054;52.062;10.010;2023-05-19T03:25:29;7.80;99.90
59282;DHT22;45054;52.062;10.010;2023-05-19T03:27:55;7.70;99.90
59282;DHT22;45054;52.062;10.010;2023-05-19T03:30:22;7.70;99.90
59282;DHT22;45054;52.062;10.010;2023-05-19T03:32:47;7.70;99.90
59282;DHT22;45054;52.062;10.010;2023-05-19T03:35:13;7.70;99.90
59282;DHT22;45054;52.062;10.010;2023-05-19T03:37:38;7.80;99.90
59282;DHT22;45054;52.062;10.010;2023-05-19T03:40:04;7.90;99.90
59282;DHT22;45054;52.062;10.010;2023-05-19T03:42:30;7.80;99.90
59282;DHT22;45054;52.062;10.010;2023-05-19T03:44:55;7.80;99.90
59282;DHT22;45054;52.062;10.010;2023-05-19T03:47:22;7.90;99.90
59282;DHT22;45054;52.062;10.010;2023-05-19T03:49:47;7.90;99.90
59282;DHT22;45054;52.062;10.010;2023-05-19T03:52:13;7.80;99.90
59282;DHT22;45054;52.062;10.010;2023-05-19T03:54:38;7.90;99.90
59282;DHT22;45054;52.062;10.010;2023-05-19T03:57:04;7.90;99.90
59282;DHT22;45054;52.062;10.010;2023-05-19T03:59:30;7.80;99.90
59282;DHT22;45054;52.062;10.010;2023-05-19T04:01:55;7.80;99.90
59282;DHT22;45054;52.062;10.010;2023-05-19T04:04:22;7.90;99.90
59282;DHT22;45054;52.062;10.010;2023-05-19T04:06:47;8.00;99.90
59282;DHT22;45054;52.062;10.010;2023-05-19T04:09:13;8.00;99.90
59282;DHT22;45054;52.062;10.010;2023-05-19T04:11:39;8.00;99.90
59282;DHT22;45054;52.062;10.010;2023-05-19T04:14:05;8.10;99.90
59282;DHT22;45054;52.062;10.010;2023-05-19T04:16:30;8.10;99.90
59282;DHT22;45054;52.062;10.010;2023-05-19T04:18:56;8.10;99.90
59282;DHT22;45054;52.062;10.010;2023-05-19T04:21:23;8.10;99.90
59282;DHT22;45054;52.062;10.010;2023-05-19T04:23:48;8.20;99.90
59282;DHT22;45054;52.062;10.010;2023-05-19T04:26:14;8.30;99.90
59282;DHT22;45054;52.062;10.010;2023-05-19T04:28:39;8.30;99.90
59282;DHT22;45054;52.062;10.010;2023-05-19T04:31:05;8.30;99.90
59282;DHT22;45054;52.062;10.010;2023-05-19T04:33:30;8.20;99.90
59282;DHT22;45054;52.062;10.010;2023-05-19T04:35:56;8.30;99.90
59282;DHT22;45054;52.062;10.010;2023-05-19T04:38:22;8.30;99.90
59282;DHT22;45054;52.062;10.010;2023-05-19T04:40:48;8.40;99.90
59282;DHT22;45054;52.062;10.010;2023-05-19T04:43:13;8.40;99.90
59282;DHT22;45054;52.062;10.010;2023-05-19T04:45:39;8.40;99.90
59282;DHT22;45054;52.062;10.010;2023-05-19T04:48:04;8.50;99.90
59282;DHT22;45054;52.062;10.010;2023-05-19T04:50:30;8.50;99.90
59282;DHT22;45054;52.062;10.010;2023-05-19T04:52:55;8.50;99.90
59282;DHT22;45054;52.062;10.010;2023-05-19T04:55:22;8.60;99.90
59282;DHT22;45054;52.062;10.010;2023-05-19T04:57:48;8.70;99.90
59282;DHT22;45054;52.062;10.010;2023-05-19T05:00:13;8.80;99.90
59282;DHT22;45054;52.062;10.010;2023-05-19T05:02:39;8.80;99.90
59282;DHT22;45054;52.062;10.010;2023-05-19T05:05:05;8.80;99.90
59282;DHT22;45054;52.062;10.010;2023-05-19T05:07:30;8.80;99.90
59282;DHT22;45054;52.062;10.010;2023-05-19T05:09:56;8.80;99.90
59282;DHT22;45054;52.062;10.010;2023-05-19T05:12:23;8.90;99.90
59282;DHT22;45054;52.062;10.010;2023-05-19T05:14:48;8.90;99.90
59282;DHT22;45054;52.062;10.010;2023-05-19T05:17:14;9.00;99.90
59282;DHT22;45054;52.062;10.010;2023-05-19T05:19:40;9.00;99.90
59282;DHT22;45054;52.062;10.010;2023-05-19T05:22:06;9.10;99.90
59282;DHT22;45054;52.062;10.010;2023-05-19T05:24:31;9.10;99.90
59282;DHT22;45054;52.062;10.010;2023-05-19T05:26:57;9.10;99.90
59282;DHT22;45054;52.062;10.010;2023-05-19T05:29:24;9.10;99.90
59282;DHT22;45054;52.062;10.010;2023-05-19T05:31:49;9.10;99.90
59282;DHT22;45054;52.062;10.010;2023-05-19T05:34:15;9.20;99.90
59282;DHT22;45054;52.062;10.010;2023-05-19T05:36:40;9.20;99.90
59282;DHT22;45054;52.062;10.010;2023-05-19T05:39:06;9.20;99.90
59282;DHT22;45054;52.062;10.010;2023-05-19T05:41:31;9.20;99.90
59282;DHT22;45054;52.062;10.010;2023-05-19T05:43:57;9.20;99.90
59282;DHT22;45054;52.062;10.010;2023-05-19T05:46:23;9.20;99.90
59282;DHT22;45054;52.062;10.010;2023-05-19T05:48:49;9.10;99.90
59282;DHT22;45054;52.062;10.010;2023-05-19T05:51:15;9.20;99.90
59282;DHT22;45054;52.062;10.010;2023-05-19T05:53:40;9.10;99.90
59282;DHT22;45054;52.062;10.010;2023-05-19T05:56:07;9.10;99.90
59282;DHT22;45054;52.062;10.010;2023-05-19T05:58:33;9.20;99.90
59282;DHT22;45054;52.062;10.010;2023-05-19T06:00:58;9.20;99.90
59282;DHT22;45054;52.062;10.010;2023-05-19T06:03:25;9.20;99.90
59282;DHT22;45054;52.062;10.010;2023-05-19T06:05:50;9.20;99.90
59282;DHT22;45054;52.062;10.010;2023-05-19T06:08:16;9.30;99.90
59282;DHT22;45054;52.062;10.010;2023-05-19T06:10:41;9.30;99.90
59282;DHT22;45054;52.062;10.010;2023-05-19T06:13:07;9.20;99.90
59282;DHT22;45054;52.062;10.010;2023-05-19T06:15:32;9.30;99.90
59282;DHT22;45054;52.062;10.010;2023-05-19T06:17:58;9.30;99.90
59282;DHT22;45054;52.062;10.010;2023-05-19T06:20:24;9.30;99.90
59282;DHT22;45054;52.062;10.010;2023-05-19T06:22:50;9.40;99.90
59282;DHT22;45054;52.062;10.010;2023-05-19T06:25:15;9.50;99.90
59282;DHT22;45054;52.062;10.010;2023-05-19T06:27:41;9.50;99.90
59282;DHT22;45054;52.062;10.010;2023-05-19T06:30:07;9.60;99.90
59282;DHT22;45054;52.062;10.010;2023-05-19T06:32:32;9.80;99.90
59282;DHT22;45054;52.062;10.010;2023-05-19T06:34:58;9.80;99.90
59282;DHT22;45054;52.062;10.010;2023-05-19T06:37:25;9.90;99.90
59282;DHT22;45054;52.062;10.010;2023-05-19T06:39:50;9.90;99.90
59282;DHT22;45054;52.062;10.010;2023-05-19T06:42:16;10.00;99.90
59282;DHT22;45054;52.062;10.010;2023-05-19T06:44:41;10.10;99.90
59282;DHT22;45054;52.062;10.010;2023-05-19T06:47:07;10.20;99.90
59282;DHT22;45054;52.062;10.010;2023-05-19T06:49:32;10.40;99.90
59282;DHT22;45054;52.062;10.010;2023-05-19T06:51:58;10.40;99.90
59282;DHT22;45054;52.062;10.010;2023-05-19T06:54:25;10.50;99.90
59282;DHT22;45054;52.062;10.010;2023-05-19T06:56:50;10.60;99.90
59282;DHT22;45054;52.062;10.010;2023-05-19T06:59:15;10.70;99.90
59282;DHT22;45054;52.062;10.010;2023-05-19T07:01:41;10.70;99.90
59282;DHT22;45054;52.062;10.010;2023-05-19T07:04:06;10.80;99.90
59282;DHT22;45054;52.062;10.010;2023-05-19T07:06:32;10.80;99.90
59282;DHT22;45054;52.062;10.010;2023-05-19T07:08:57;11.00;99.90
59282;DHT22;45054;52.062;10.010;2023-05-19T07:11:24;11.00;99.90
59282;DHT22;45054;52.062;10.010;2023-05-19T07:13:49;11.20;99.90
59282;DHT22;45054;52.062;10.010;2023-05-19T07:16:15;11.30;99.90
59282;DHT22;45054;52.062;10.010;2023-05-19T07:18:40;11.30;99.90
59282;DHT22;45054;52.062;10.010;2023-05-19T07:21:06;11.40;99.90
59282;DHT22;45054;52.062;10.010;2023-05-19T07:23:31;11.50;99.90
59282;DHT22;45054;52.062;10.010;2023-05-19T07:25:57;11.60;99.90
59282;DHT22;45054;52.062;10.010;2023-05-19T07:28:23;11.70;99.90
59282;DHT22;45054;52.062;10.010;2023-05-19T07:30:49;11.90;99.90
59282;DHT22;45054;52.062;10.010;2023-05-19T07:33:14;11.90;99.90
59282;DHT22;45054;52.062;10.010;2023-05-19T07:35:40;12.00;99.90
59282;DHT22;45054;52.062;10.010;2023-05-19T07:38:05;12.10;99.90
59282;DHT22;45054;52.062;10.010;2023-05-19T07:40:31;12.20;99.90
59282;DHT22;45054;52.062;10.010;2023-05-19T07:42:56;12.20;99.90
59282;DHT22;45054;52.062;10.010;2023-05-19T07:45:23;12.30;99.90
59282;DHT22;45054;52.062;10.010;2023-05-19T07:47:48;12.30;99.90
59282;DHT22;45054;52.062;10.010;2023-05-19T07:50:14;12.40;99.90
59282;DHT22;45054;52.062;10.010;2023-05-19T07:52:39;12.50;99.90
59282;DHT22;45054;52.062;10.010;2023-05-19T07:55:05;12.50;99.90
59282;DHT22;45054;52.062;10.010;2023-05-19T07:57:30;12.60;99.90
59282;DHT22;45054;52.062;10.010;2023-05-19T07:59:56;12.80;99.90
59282;DHT22;45054;52.062;10.010;2023-05-19T08:02:22;12.70;99.90
59282;DHT22;45054;52.062;10.010;2023-05-19T08:04:48;12.80;99.90
59282;DHT22;45054;52.062;10.010;2023-05-19T08:07:13;12.90;99.90
59282;DHT22;45054;52.062;10.010;2023-05-19T08:09:39;12.90;99.90
59282;DHT22;45054;52.062;10.010;2023-05-19T08:12:04;12.90;99.90
59282;DHT22;45054;52.062;10.010;2023-05-19T08:14:30;13.10;99.90
59282;DHT22;45054;52.062;10.010;2023-05-19T08:16:55;13.30;99.90
59282;DHT22;45054;52.062;10.010;2023-05-19T08:19:22;13.50;99.90
59282;DHT22;45054;52.062;10.010;2023-05-19T08:21:48;13.60;99.90
59282;DHT22;45054;52.062;10.010;2023-05-19T08:24:13;13.70;99.90
59282;DHT22;45054;52.062;10.010;2023-05-19T08:26:38;13.80;99.90
59282;DHT22;45054;52.062;10.010;2023-05-19T08:29:04;13.80;99.90
59282;DHT22;45054;52.062;10.010;2023-05-19T08:31:29;13.90;99.90
59282;DHT22;45054;52.062;10.010;2023-05-19T08:33:55;14.00;99.90
59282;DHT22;45054;52.062;10.010;2023-05-19T08:36:22;14.20;99.90
59282;DHT22;45054;52.062;10.010;2023-05-19T08:38:47;14.30;99.90
59282;DHT22;45054;52.062;10.010;2023-05-19T08:41:13;14.40;99.90
59282;DHT22;45054;52.062;10.010;2023-05-19T08:43:38;14.30;99.90
59282;DHT22;45054;52.062;10.010;2023-05-19T08:46:03;14.30;99.90
59282;DHT22;45054;52.062;10.010;2023-05-19T08:48:29;14.50;99.90
59282;DHT22;45054;52.062;10.010;2023-05-19T08:50:56;14.50;99.90
59282;DHT22;45054;52.062;10.010;2023-05-19T08:53:26;14.60;99.90
59282;DHT22;45054;52.062;10.010;2023-05-19T08:55:57;14.70;99.90
59282;DHT22;45054;52.062;10.010;2023-05-19T08:58:25;14.80;99.90
59282;DHT22;45054;52.062;10.010;2023-05-19T09:00:51;15.00;99.90
59282;DHT22;45054;52.062;10.010;2023-05-19T09:03:16;15.00;99.90
59282;DHT22;45054;52.062;10.010;2023-05-19T09:05:42;15.00;99.90
59282;DHT22;45054;52.062;10.010;2023-05-19T09:08:08;15.00;99.90
59282;DHT22;45054;52.062;10.010;2023-05-19T09:10:34;15.10;99.90
59282;DHT22;45054;52.062;10.010;2023-05-19T09:13:00;15.20;99.90
59282;DHT22;45054;52.062;10.010;2023-05-19T09:15:26;15.40;99.90
59282;DHT22;45054;52.062;10.010;2023-05-19T09:17:56;15.50;99.90
59282;DHT22;45054;52.062;10.010;2023-05-19T09:20:29;15.60;99.90
59282;DHT22;45054;52.062;10.010;2023-05-19T09:22:54;15.60;99.90
59282;DHT22;45054;52.062;10.010;2023-05-19T09:25:21;15.60;99.90
59282;DHT22;45054;52.062;10.010;2023-05-19T09:27:47;15.70;99.90
59282;DHT22;45054;52.062;10.010;2023-05-19T09:30:14;15.70;99.90
59282;DHT22;45054;52.062;10.010;2023-05-19T09:32:39;15.80;99.90
59282;DHT22;45054;52.062;10.010;2023-05-19T09:35:05;15.90;99.90
59282;DHT22;45054;52.062;10.010;2023-05-19T09:37:31;16.10;99.90
59282;DHT22;45054;52.062;10.010;2023-05-19T09:39:56;16.20;99.90
59282;DHT22;45054;52.062;10.010;2023-05-19T09:42:25;16.30;99.90
59282;DHT22;45054;52.062;10.010;2023-05-19T09:44:58;16.40;99.90
59282;DHT22;45054;52.062;10.010;2023-05-19T09:47:24;16.30;99.90
59282;DHT22;45054;52.062;10.010;2023-05-19T09:49:49;16.40;99.90
59282;DHT22;45054;52.062;10.010;2023-05-19T09:52:15;16.30;99.90
59282;DHT22;45054;52.062;10.010;2023-05-19T09:54:40;16.40;99.90
59282;DHT22;45054;52.062;10.010;2023-05-19T09:57:06;16.50;99.90
59282;DHT22;45054;52.062;10.010;2023-05-19T09:59:31;16.40;99.90
59282;DHT22;45054;52.062;10.010;2023-05-19T10:01:59;16.50;99.90
59282;DHT22;45054;52.062;10.010;2023-05-19T10:04:25;16.60;99.90
59282;DHT22;45054;52.062;10.010;2023-05-19T10:06:51;16.50;99.90
59282;DHT22;45054;52.062;10.010;2023-05-19T10:09:17;16.50;99.90
59282;DHT22;45054;52.062;10.010;2023-05-19T10:11:42;16.30;99.90
59282;DHT22;45054;52.062;10.010;2023-05-19T10:14:08;16.20;99.90
59282;DHT22;45054;52.062;10.010;2023-05-19T10:16:33;16.20;99.90
59282;DHT22;45054;52.062;10.010;2023-05-19T10:19:01;16.30;99.90
59282;DHT22;45054;52.062;10.010;2023-05-19T10:21:27;16.50;99.90
59282;DHT22;45054;52.062;10.010;2023-05-19T10:23:53;16.50;99.90
59282;DHT22;45054;52.062;10.010;2023-05-19T10:26:18;16.60;99.90
59282;DHT22;45054;52.062;10.010;2023-05-19T10:28:44;16.60;99.90
59282;DHT22;45054;52.062;10.010;2023-05-19T10:31:10;16.70;99.90
59282;DHT22;45054;52.062;10.010;2023-05-19T10:33:40;16.70;99.90
59282;DHT22;45054;52.062;10.010;2023-05-19T10:36:12;16.60;99.90
59282;DHT22;45054;52.062;10.010;2023-05-19T10:38:40;16.70;99.90
59282;DHT22;45054;52.062;10.010;2023-05-19T10:41:06;16.70;99.90
59282;DHT22;45054;52.062;10.010;2023-05-19T10:43:37;17.00;99.90
59282;DHT22;45054;52.062;10.010;2023-05-19T10:46:03;17.30;99.90
59282;DHT22;45054;52.062;10.010;2023-05-19T10:48:31;17.40;99.90
59282;DHT22;45054;52.062;10.010;2023-05-19T10:50:57;17.60;99.90
59282;DHT22;45054;52.062;10.010;2023-05-19T10:53:29;17.60;99.90
59282;DHT22;45054;52.062;10.010;2023-05-19T10:55:54;17.50;99.90
59282;DHT22;45054;52.062;10.010;2023-05-19T10:58:36;17.50;99.90
59282;DHT22;45054;52.062;10.010;2023-05-19T11:01:05;17.50;99.90
59282;DHT22;45054;52.062;10.010;2023-05-19T11:03:35;17.30;99.90
59282;DHT22;45054;52.062;10.010;2023-05-19T11:06:16;17.20;99.90
59282;DHT22;45054;52.062;10.010;2023-05-19T11:08:43;17.40;99.90
59282;DHT22;45054;52.062;10.010;2023-05-19T11:11:12;17.60;99.90
59282;DHT22;45054;52.062;10.010;2023-05-19T11:13:39;17.80;99.90
59282;DHT22;45054;52.062;10.010;2023-05-19T11:16:05;18.00;99.90
59282;DHT22;45054;52.062;10.010;2023-05-19T11:18:31;18.20;99.90
59282;DHT22;45054;52.062;10.010;2023-05-19T11:20:56;18.50;99.90
59282;DHT22;45054;52.062;10.010;2023-05-19T11:23:24;18.60;99.90
59282;DHT22;45054;52.062;10.010;2023-05-19T11:25:51;18.50;99.90
59282;DHT22;45054;52.062;10.010;2023-05-19T11:28:17;18.50;99.90
59282;DHT22;45054;52.062;10.010;2023-05-19T11:30:43;18.60;99.90
59282;DHT22;45054;52.062;10.010;2023-05-19T11:33:09;18.60;99.90
59282;DHT22;45054;52.062;10.010;2023-05-19T11:35:34;18.50;99.90
59282;DHT22;45054;52.062;10.010;2023-05-19T11:38:00;18.40;99.90
59282;DHT22;45054;52.062;10.010;2023-05-19T11:40:26;18.50;99.90
59282;DHT22;45054;52.062;10.010;2023-05-19T11:42:53;18.50;99.90
59282;DHT22;45054;52.062;10.010;2023-05-19T11:45:23;18.60;99.90
59282;DHT22;45054;52.062;10.010;2023-05-19T11:47:48;18.50;99.90
59282;DHT22;45054;52.062;10.010;2023-05-19T11:50:14;18.50;99.90
59282;DHT22;45054;52.062;10.010;2023-05-19T11:52:42;18.60;99.90
59282;DHT22;45054;52.062;10.010;2023-05-19T11:55:08;18.60;99.90
59282;DHT22;45054;52.062;10.010;2023-05-19T11:57:33;18.60;99.90
59282;DHT22;45054;52.062;10.010;2023-05-19T12:00:02;18.70;99.90
59282;DHT22;45054;52.062;10.010;2023-05-19T12:02:27;18.60;99.90
59282;DHT22;45054;52.062;10.010;2023-05-19T12:04:53;18.50;99.90
59282;DHT22;45054;52.062;10.010;2023-05-19T12:07:19;18.40;99.90
59282;DHT22;45054;52.062;10.010;2023-05-19T12:09:44;18.60;99.90
59282;DHT22;45054;52.062;10.010;2023-05-19T12:12:11;18.40;99.90
59282;DHT22;45054;52.062;10.010;2023-05-19T12:14:37;18.40;99.90
59282;DHT22;45054;52.062;10.010;2023-05-19T12:17:10;18.30;99.90
59282;DHT22;45054;52.062;10.010;2023-05-19T12:19:35;18.30;99.90
59282;DHT22;45054;52.062;10.010;2023-05-19T12:22:01;18.40;99.90
59282;DHT22;45054;52.062;10.010;2023-05-19T12:24:26;18.50;99.90
59282;DHT22;45054;52.062;10.010;2023-05-19T12:26:57;18.70;99.90
59282;DHT22;45054;52.062;10.010;2023-05-19T12:29:28;19.00;99.90
59282;DHT22;45054;52.062;10.010;2023-05-19T12:31:55;19.20;99.90
59282;DHT22;45054;52.062;10.010;2023-05-19T12:34:22;19.30;99.90
59282;DHT22;45054;52.062;10.010;2023-05-19T12:36:47;19.60;99.90
59282;DHT22;45054;52.062;10.010;2023-05-19T12:39:15;19.60;99.90
59282;DHT22;45054;52.062;10.010;2023-05-19T12:41:43;19.80;99.90
59282;DHT22;45054;52.062;10.010;2023-05-19T12:44:12;20.00;99.90
59282;DHT22;45054;52.062;10.010;2023-05-19T12:46:38;20.20;99.90
59282;DHT22;45054;52.062;10.010;2023-05-19T12:49:04;20.40;99.90
59282;DHT22;45054;52.062;10.010;2023-05-19T12:51:31;20.40;99.90
59282;DHT22;45054;52.062;10.010;2023-05-19T12:53:56;20.30;99.90
59282;DHT22;45054;52.062;10.010;2023-05-19T12:56:23;20.20;99.90
59282;DHT22;45054;52.062;10.010;2023-05-19T12:58:52;19.80;99.90
59282;DHT22;45054;52.062;10.010;2023-05-19T13:01:17;19.60;99.90
59282;DHT22;45054;52.062;10.010;2023-05-19T13:03:42;19.60;99.90
59282;DHT22;45054;52.062;10.010;2023-05-19T13:06:08;19.60;99.90
59282;DHT22;45054;52.062;10.010;2023-05-19T13:08:35;19.60;99.90
59282;DHT22;45054;52.062;10.010;2023-05-19T13:11:00;19.60;99.90
59282;DHT22;45054;52.062;10.010;2023-05-19T13:13:26;19.80;99.90
59282;DHT22;45054;52.062;10.010;2023-05-19T13:15:51;20.00;99.90
59282;DHT22;45054;52.062;10.010;2023-05-19T13:18:17;20.10;99.90
59282;DHT22;45054;52.062;10.010;2023-05-19T13:20:43;20.20;99.90
59282;DHT22;45054;52.062;10.010;2023-05-19T13:23:09;20.30;99.90
59282;DHT22;45054;52.062;10.010;2023-05-19T13:25:36;20.20;99.90
59282;DHT22;45054;52.062;10.010;2023-05-19T13:28:01;20.10;99.90
59282;DHT22;45054;52.062;10.010;2023-05-19T13:30:27;20.20;99.90
59282;DHT22;45054;52.062;10.010;2023-05-19T13:32:52;20.30;99.90
59282;DHT22;45054;52.062;10.010;2023-05-19T13:35:18;20.40;99.90
59282;DHT22;45054;52.062;10.010;2023-05-19T13:37:44;20.40;99.90
59282;DHT22;45054;52.062;10.010;2023-05-19T13:40:10;20.70;99.90
59282;DHT22;45054;52.062;10.010;2023-05-19T13:42:37;21.00;99.90
59282;DHT22;45054;52.062;10.010;2023-05-19T13:45:02;21.20;99.90
59282;DHT22;45054;52.062;10.010;2023-05-19T13:47:28;21.00;99.90
59282;DHT22;45054;52.062;10.010;2023-05-19T13:49:54;20.80;99.90
59282;DHT22;45054;52.062;10.010;2023-05-19T13:52:19;20.60;99.90
59282;DHT22;45054;52.062;10.010;2023-05-19T13:54:45;20.30;99.90
59282;DHT22;45054;52.062;10.010;2023-05-19T13:57:10;20.30;99.90
59282;DHT22;45054;52.062;10.010;2023-05-19T13:59:37;20.00;99.90
59282;DHT22;45054;52.062;10.010;2023-05-19T14:02:03;19.90;99.90
59282;DHT22;45054;52.062;10.010;2023-05-19T14:04:28;19.70;99.90
59282;DHT22;45054;52.062;10.010;2023-05-19T14:06:54;19.70;99.90
59282;DHT22;45054;52.062;10.010;2023-05-19T14:09:19;19.60;99.90
59282;DHT22;45054;52.062;10.010;2023-05-19T14:11:45;19.70;99.90
59282;DHT22;45054;52.062;10.010;2023-05-19T14:14:10;19.80;99.90
59282;DHT22;45054;52.062;10.010;2023-05-19T14:16:37;19.80;99.90
59282;DHT22;45054;52.062;10.010;2023-05-19T14:19:03;20.30;99.90
59282;DHT22;45054;52.062;10.010;2023-05-19T14:21:28;20.70;99.90
59282;DHT22;45054;52.062;10.010;2023-05-19T14:23:54;21.40;99.90
59282;DHT22;45054;52.062;10.010;2023-05-19T14:26:19;21.80;99.90
59282;DHT22;45054;52.062;10.010;2023-05-19T14:28:44;22.00;99.90
59282;DHT22;45054;52.062;10.010;2023-05-19T14:31:10;22.40;99.90
59282;DHT22;45054;52.062;10.010;2023-05-19T14:33:37;22.30;99.90
59282;DHT22;45054;52.062;10.010;2023-05-19T14:36:03;22.10;99.90
59282;DHT22;45054;52.062;10.010;2023-05-19T14:38:28;21.60;99.90
59282;DHT22;45054;52.062;10.010;2023-05-19T14:40:54;21.30;99.90
59282;DHT22;45054;52.062;10.010;2023-05-19T14:43:19;21.10;99.90
59282;DHT22;45054;52.062;10.010;2023-05-19T14:45:44;20.80;99.90
59282;DHT22;45054;52.062;10.010;2023-05-19T14:48:10;20.50;99.90
59282;DHT22;45054;52.062;10.010;2023-05-19T14:50:37;20.30;99.90
59282;DHT22;45054;52.062;10.010;2023-05-19T14:53:02;20.10;99.90
59282;DHT22;45054;52.062;10.010;2023-05-19T14:55:28;19.90;99.90
59282;DHT22;45054;52.062;10.010;2023-05-19T14:57:53;19.60;99.90
59282;DHT22;45054;52.062;10.010;2023-05-19T15:00:18;19.40;99.90
59282;DHT22;45054;52.062;10.010;2023-05-19T15:02:44;19.40;99.90
59282;DHT22;45054;52.062;10.010;2023-05-19T15:05:09;19.40;99.90
59282;DHT22;45054;52.062;10.010;2023-05-19T15:07:36;19.60;99.90
59282;DHT22;45054;52.062;10.010;2023-05-19T15:10:02;19.60;99.90
59282;DHT22;45054;52.062;10.010;2023-05-19T15:12:27;20.00;99.90
59282;DHT22;45054;52.062;10.010;2023-05-19T15:14:53;20.40;99.90